createdAt,value
2018-12-01T00:00:40.903Z,874.00
2018-12-01T00:01:41.364Z,874.00
2018-12-01T00:02:41.942Z,874.00
2018-12-01T00:03:42.729Z,874.00
2018-12-01T00:04:42.161Z,874.00
2018-12-01T00:05:43.591Z,874.00
2018-12-01T00:06:44.473Z,876.00
2018-12-01T00:07:45.033Z,876.00
2018-12-01T00:08:45.412Z,876.00
2018-12-01T00:09:45.744Z,878.00
2018-12-01T00:10:46.235Z,879.00
2018-12-01T00:11:46.680Z,878.00
2018-12-01T00:12:47.014Z,876.00
2018-12-01T00:13:47.365Z,876.00
2018-12-01T00:14:47.681Z,880.00
2018-12-01T00:15:48.082Z,882.00
2018-12-01T00:16:48.798Z,881.00
2018-12-01T00:17:49.191Z,879.00
2018-12-01T00:18:49.564Z,879.00
2018-12-01T00:19:49.955Z,877.00
2018-12-01T00:20:50.773Z,879.00
2018-12-01T00:21:51.096Z,880.00
2018-12-01T00:22:51.609Z,880.00
2018-12-01T00:23:51.921Z,879.00
2018-12-01T00:24:52.249Z,878.00
2018-12-01T00:25:52.719Z,878.00
2018-12-01T00:26:53.132Z,876.00
2018-12-01T00:27:54.000Z,876.00
2018-12-01T00:28:54.313Z,876.00
2018-12-01T00:29:54.661Z,876.00
2018-12-01T00:30:55.131Z,878.00
2018-12-01T00:31:55.727Z,877.00
2018-12-01T00:32:56.149Z,877.00
2018-12-01T00:33:56.845Z,867.00
2018-12-01T00:34:57.547Z,879.00
2018-12-01T00:35:57.674Z,878.00
2018-12-01T00:36:58.240Z,876.00
2018-12-01T00:37:58.669Z,877.00
2018-12-01T00:38:07.092Z,868.00
2018-12-01T00:39:07.708Z,879.00
2018-12-01T00:40:08.075Z,879.00
2018-12-01T00:41:08.632Z,879.00
2018-12-01T00:42:09.574Z,879.00
2018-12-01T00:43:10.225Z,878.00
2018-12-01T00:44:10.565Z,878.00
2018-12-01T00:45:10.619Z,878.00
2018-12-01T00:46:11.026Z,877.00
2018-12-01T00:47:11.562Z,878.00
2018-12-01T00:48:12.088Z,878.00
2018-12-01T00:49:12.465Z,876.00
2018-12-01T00:50:13.027Z,876.00
2018-12-01T00:51:12.434Z,876.00
2018-12-01T00:52:13.873Z,878.00
2018-12-01T00:53:14.268Z,878.00
2018-12-01T00:54:14.745Z,878.00
2018-12-01T00:55:15.140Z,878.00
2018-12-01T00:56:15.684Z,878.00
2018-12-01T00:57:16.390Z,880.00
2018-12-01T00:58:16.865Z,879.00
2018-12-01T00:59:17.222Z,878.00
2018-12-01T01:00:17.721Z,878.00
2018-12-01T01:01:18.100Z,879.00
2018-12-01T01:02:18.779Z,878.00
2018-12-01T01:03:19.093Z,878.00
2018-12-01T01:04:19.614Z,877.00
2018-12-01T01:05:19.970Z,876.00
2018-12-01T01:06:20.696Z,876.00
2018-12-01T01:07:21.161Z,874.00
2018-12-01T01:08:21.670Z,874.00
2018-12-01T01:09:22.157Z,874.00
2018-12-01T01:10:23.068Z,874.00
2018-12-01T01:11:23.579Z,873.00
2018-12-01T01:12:24.075Z,873.00
2018-12-01T01:13:24.299Z,873.00
2018-12-01T01:14:24.642Z,873.00
2018-12-01T01:15:24.213Z,873.00
2018-12-01T01:16:25.652Z,873.00
2018-12-01T01:17:26.068Z,873.00
2018-12-01T01:18:26.478Z,873.00
2018-12-01T01:19:26.633Z,873.00
2018-12-01T01:20:27.132Z,872.00
2018-12-01T01:21:27.492Z,873.00
2018-12-01T01:22:27.837Z,872.00
2018-12-01T01:22:36.186Z,872.00
2018-12-01T01:23:37.557Z,873.00
2018-12-01T01:24:37.989Z,876.00
2018-12-01T01:25:38.388Z,874.00
2018-12-01T01:26:38.773Z,873.00
2018-12-01T01:27:39.176Z,874.00
2018-12-01T01:28:39.482Z,873.00
2018-12-01T01:29:39.894Z,874.00
2018-12-01T01:30:40.262Z,874.00
2018-12-01T01:31:40.679Z,873.00
2018-12-01T01:32:41.256Z,873.00
2018-12-01T01:33:41.690Z,873.00
2018-12-01T01:34:42.139Z,873.00
2018-12-01T01:35:42.536Z,873.00
2018-12-01T01:36:43.022Z,874.00
2018-12-01T01:37:43.463Z,873.00
2018-12-01T01:38:44.045Z,874.00
2018-12-01T01:39:44.695Z,874.00
2018-12-01T01:40:45.209Z,876.00
2018-12-01T01:41:45.677Z,874.00
2018-12-01T01:42:46.129Z,876.00
2018-12-01T01:43:46.585Z,876.00
2018-12-01T01:44:47.194Z,878.00
2018-12-01T01:45:47.937Z,876.00
2018-12-01T01:46:48.636Z,874.00
2018-12-01T01:47:49.470Z,874.00
2018-12-01T01:48:49.516Z,874.00
2018-12-01T01:49:49.978Z,874.00
2018-12-01T01:50:50.438Z,874.00
2018-12-01T01:51:50.918Z,876.00
2018-12-01T01:52:51.638Z,879.00
2018-12-01T01:53:52.093Z,877.00
2018-12-01T01:54:52.558Z,876.00
2018-12-01T01:55:53.188Z,877.00
2018-12-01T01:56:53.740Z,876.00
2018-12-01T01:57:54.309Z,877.00
2018-12-01T01:58:54.828Z,878.00
2018-12-01T01:59:55.761Z,878.00
2018-12-01T02:00:55.822Z,879.00
2018-12-01T02:01:56.374Z,878.00
2018-12-01T02:02:56.933Z,878.00
2018-12-01T02:03:57.322Z,876.00
2018-12-01T02:04:57.928Z,874.00
2018-12-01T02:05:58.310Z,874.00
2018-12-01T02:06:58.812Z,874.00
2018-12-01T02:07:07.432Z,874.00
2018-12-01T02:08:08.002Z,874.00
2018-12-01T02:09:08.526Z,874.00
2018-12-01T02:10:08.603Z,874.00
2018-12-01T02:11:09.313Z,874.00
2018-12-01T02:12:09.880Z,874.00
2018-12-01T02:13:10.623Z,873.00
2018-12-01T02:14:11.343Z,874.00
2018-12-01T02:15:11.855Z,873.00
2018-12-01T02:16:12.458Z,873.00
2018-12-01T02:17:12.164Z,873.00
2018-12-01T02:18:13.595Z,874.00
2018-12-01T02:19:14.137Z,874.00
2018-12-01T02:20:14.684Z,874.00
2018-12-01T02:21:15.533Z,876.00
2018-12-01T02:22:15.637Z,876.00
2018-12-01T02:23:15.805Z,874.00
2018-12-01T02:24:16.186Z,874.00
2018-12-01T02:25:17.078Z,874.00
2018-12-01T02:26:18.650Z,874.00
2018-12-01T02:27:18.251Z,876.00
2018-12-01T02:28:18.850Z,874.00
2018-12-01T02:29:19.418Z,874.00
2018-12-01T02:30:19.898Z,874.00
2018-12-01T02:31:20.390Z,876.00
2018-12-01T02:32:20.886Z,876.00
2018-12-01T02:33:21.234Z,874.00
2018-12-01T02:34:21.559Z,874.00
2018-12-01T02:35:21.666Z,866.00
2018-12-01T02:36:22.015Z,874.00
2018-12-01T02:37:22.086Z,876.00
2018-12-01T02:38:22.748Z,876.00
2018-12-01T02:39:23.690Z,874.00
2018-12-01T02:40:24.200Z,874.00
2018-12-01T02:41:24.738Z,874.00
2018-12-01T02:42:25.258Z,876.00
2018-12-01T02:43:25.767Z,874.00
2018-12-01T02:44:26.403Z,876.00
2018-12-01T02:45:26.876Z,880.00
2018-12-01T02:46:27.656Z,879.00
2018-12-01T02:47:28.169Z,879.00
2018-12-01T02:48:28.727Z,879.00
2018-12-01T02:49:29.176Z,880.00
2018-12-01T02:50:28.557Z,879.00
2018-12-01T02:51:29.911Z,879.00
2018-12-01T02:51:38.032Z,879.00
2018-12-01T02:52:39.368Z,878.00
2018-12-01T02:53:39.990Z,879.00
2018-12-01T02:54:39.390Z,878.00
2018-12-01T02:55:40.997Z,878.00
2018-12-01T02:56:41.395Z,878.00
2018-12-01T02:57:42.053Z,878.00
2018-12-01T02:58:42.438Z,878.00
2018-12-01T02:59:42.938Z,877.00
2018-12-01T03:00:43.633Z,876.00
2018-12-01T03:01:44.254Z,876.00
2018-12-01T03:02:45.814Z,877.00
2018-12-01T03:03:45.397Z,878.00
2018-12-01T03:04:46.107Z,878.00
2018-12-01T03:05:46.599Z,878.00
2018-12-01T03:06:47.160Z,878.00
2018-12-01T03:07:47.944Z,878.00
2018-12-01T03:08:48.276Z,879.00
2018-12-01T03:09:48.869Z,879.00
2018-12-01T03:10:49.313Z,878.00
2018-12-01T03:11:49.654Z,878.00
2018-12-01T03:12:50.131Z,878.00
2018-12-01T03:13:50.623Z,879.00
2018-12-01T03:14:51.025Z,879.00
2018-12-01T03:15:51.635Z,880.00
2018-12-01T03:16:52.094Z,879.00
2018-12-01T03:17:52.615Z,879.00
2018-12-01T03:18:53.036Z,880.00
2018-12-01T03:19:53.491Z,880.00
2018-12-01T03:20:52.885Z,879.00
2018-12-01T03:21:54.631Z,879.00
2018-12-01T03:22:55.047Z,878.00
2018-12-01T03:23:55.526Z,878.00
2018-12-01T03:24:55.967Z,878.00
2018-12-01T03:25:56.383Z,880.00
2018-12-01T03:26:55.847Z,879.00
2018-12-01T03:27:57.323Z,879.00
2018-12-01T03:28:57.800Z,880.00
2018-12-01T03:29:58.225Z,879.00
2018-12-01T03:30:58.765Z,879.00
2018-12-01T03:31:58.204Z,878.00
2018-12-01T03:32:59.589Z,878.00
2018-12-01T03:34:00.111Z,877.00
2018-12-01T03:34:59.406Z,879.00
2018-12-01T03:36:00.925Z,878.00
2018-12-01T03:37:01.345Z,878.00
2018-12-01T03:38:02.072Z,877.00
2018-12-01T03:39:02.536Z,877.00
2018-12-01T03:40:03.240Z,876.00
2018-12-01T03:40:12.607Z,876.00
2018-12-01T03:41:12.994Z,878.00
2018-12-01T03:42:13.356Z,878.00
2018-12-01T03:43:13.676Z,879.00
2018-12-01T03:44:14.043Z,878.00
2018-12-01T03:45:14.466Z,878.00
2018-12-01T03:46:15.026Z,877.00
2018-12-01T03:47:15.519Z,876.00
2018-12-01T03:48:15.859Z,876.00
2018-12-01T03:49:16.334Z,876.00
2018-12-01T03:50:16.860Z,878.00
2018-12-01T03:51:17.245Z,871.00
2018-12-01T03:52:17.794Z,876.00
2018-12-01T03:53:18.297Z,877.00
2018-12-01T03:54:18.691Z,878.00
2018-12-01T03:55:19.261Z,877.00
2018-12-01T03:56:19.723Z,878.00
2018-12-01T03:57:20.362Z,877.00
2018-12-01T03:58:20.730Z,877.00
2018-12-01T03:59:21.413Z,877.00
2018-12-01T04:00:21.941Z,879.00
2018-12-01T04:01:22.499Z,877.00
2018-12-01T04:02:22.986Z,876.00
2018-12-01T04:03:23.373Z,878.00
2018-12-01T04:04:23.801Z,878.00
2018-12-01T04:05:24.168Z,877.00
2018-12-01T04:06:24.576Z,876.00
2018-12-01T04:07:25.106Z,878.00
2018-12-01T04:08:25.730Z,878.00
2018-12-01T04:09:26.254Z,878.00
2018-12-01T04:10:26.729Z,878.00
2018-12-01T04:11:27.132Z,878.00
2018-12-01T04:12:27.530Z,877.00
2018-12-01T04:13:28.125Z,878.00
2018-12-01T04:14:28.737Z,878.00
2018-12-01T04:15:29.145Z,879.00
2018-12-01T04:16:29.673Z,878.00
2018-12-01T04:17:30.099Z,878.00
2018-12-01T04:18:30.509Z,877.00
2018-12-01T04:19:30.997Z,876.00
2018-12-01T04:20:31.754Z,876.00
2018-12-01T04:21:32.456Z,876.00
2018-12-01T04:22:33.167Z,876.00
2018-12-01T04:23:33.567Z,876.00
2018-12-01T04:23:41.673Z,876.00
2018-12-01T04:24:43.184Z,876.00
2018-12-01T04:25:43.279Z,876.00
2018-12-01T04:26:43.888Z,876.00
2018-12-01T04:27:43.433Z,876.00
2018-12-01T04:28:44.892Z,876.00
2018-12-01T04:29:45.619Z,876.00
2018-12-01T04:30:46.174Z,876.00
2018-12-01T04:31:46.791Z,876.00
2018-12-01T04:32:46.165Z,876.00
2018-12-01T04:33:47.659Z,876.00
2018-12-01T04:34:48.378Z,866.00
2018-12-01T04:35:49.076Z,874.00
2018-12-01T04:36:49.616Z,876.00
2018-12-01T04:37:50.150Z,878.00
2018-12-01T04:38:50.518Z,879.00
2018-12-01T04:39:51.153Z,878.00
2018-12-01T04:40:51.588Z,876.00
2018-12-01T04:41:51.961Z,876.00
2018-12-01T04:42:52.283Z,876.00
2018-12-01T04:43:52.800Z,876.00
2018-12-01T04:44:53.202Z,877.00
2018-12-01T04:45:53.619Z,876.00
2018-12-01T04:46:54.116Z,876.00
2018-12-01T04:47:54.569Z,876.00
2018-12-01T04:48:55.141Z,876.00
2018-12-01T04:49:55.717Z,874.00
2018-12-01T04:50:56.435Z,874.00
2018-12-01T04:51:56.812Z,874.00
2018-12-01T04:52:57.373Z,876.00
2018-12-01T04:53:57.933Z,876.00
2018-12-01T04:54:58.427Z,876.00
2018-12-01T04:55:59.077Z,876.00
2018-12-01T04:56:59.428Z,876.00
2018-12-01T04:58:00.208Z,876.00
2018-12-01T04:59:00.844Z,876.00
2018-12-01T05:00:01.359Z,876.00
2018-12-01T05:01:02.298Z,874.00
2018-12-01T05:02:02.782Z,876.00
2018-12-01T05:03:03.203Z,876.00
2018-12-01T05:04:03.587Z,876.00
2018-12-01T05:05:04.269Z,876.00
2018-12-01T05:06:05.001Z,874.00
2018-12-01T05:07:05.459Z,876.00
2018-12-01T05:08:05.922Z,874.00
2018-12-01T05:09:06.619Z,874.00
2018-12-01T05:09:15.000Z,867.00
2018-12-01T05:10:15.677Z,874.00
2018-12-01T05:11:16.254Z,874.00
2018-12-01T05:12:16.904Z,874.00
2018-12-01T05:13:17.825Z,874.00
2018-12-01T05:14:18.509Z,876.00
2018-12-01T05:15:19.467Z,876.00
2018-12-01T05:16:18.737Z,876.00
2018-12-01T05:17:20.150Z,877.00
2018-12-01T05:18:20.808Z,876.00
2018-12-01T05:19:21.240Z,876.00
2018-12-01T05:20:21.663Z,874.00
2018-12-01T05:21:22.250Z,876.00
2018-12-01T05:22:22.826Z,874.00
2018-12-01T05:23:23.498Z,874.00
2018-12-01T05:24:23.986Z,874.00
2018-12-01T05:25:24.694Z,874.00
2018-12-01T05:26:25.121Z,873.00
2018-12-01T05:27:25.681Z,874.00
2018-12-01T05:28:25.859Z,874.00
2018-12-01T05:29:26.617Z,874.00
2018-12-01T05:30:26.842Z,874.00
2018-12-01T05:31:27.238Z,873.00
2018-12-01T05:32:27.418Z,874.00
2018-12-01T05:33:27.837Z,874.00
2018-12-01T05:34:28.396Z,874.00
2018-12-01T05:35:28.936Z,874.00
2018-12-01T05:36:29.542Z,874.00
2018-12-01T05:37:30.121Z,874.00
2018-12-01T05:38:30.522Z,873.00
2018-12-01T05:39:31.030Z,873.00
2018-12-01T05:40:31.642Z,873.00
2018-12-01T05:41:32.177Z,874.00
2018-12-01T05:42:32.673Z,874.00
2018-12-01T05:43:33.259Z,873.00
2018-12-01T05:44:33.694Z,873.00
2018-12-01T05:45:34.176Z,873.00
2018-12-01T05:46:34.514Z,873.00
2018-12-01T05:47:34.838Z,873.00
2018-12-01T05:48:35.279Z,874.00
2018-12-01T05:49:36.060Z,874.00
2018-12-01T05:50:36.612Z,874.00
2018-12-01T05:51:37.215Z,873.00
2018-12-01T05:52:37.698Z,873.00
2018-12-01T05:53:36.832Z,873.00
2018-12-01T05:54:38.598Z,873.00
2018-12-01T05:55:39.567Z,873.00
2018-12-01T05:55:48.000Z,874.00
2018-12-01T05:56:49.452Z,874.00
2018-12-01T05:57:49.846Z,874.00
2018-12-01T05:58:50.367Z,873.00
2018-12-01T05:59:51.227Z,873.00
2018-12-01T06:00:51.726Z,873.00
2018-12-01T06:01:52.285Z,873.00
2018-12-01T06:02:52.960Z,873.00
2018-12-01T06:03:53.938Z,878.00
2018-12-01T06:04:54.382Z,876.00
2018-12-01T06:05:54.659Z,874.00
2018-12-01T06:06:55.625Z,874.00
2018-12-01T06:07:56.216Z,874.00
2018-12-01T06:08:56.930Z,873.00
2018-12-01T06:09:57.559Z,874.00
2018-12-01T06:10:58.246Z,874.00
2018-12-01T06:11:58.887Z,874.00
2018-12-01T06:12:59.439Z,874.00
2018-12-01T06:13:59.993Z,874.00
2018-12-01T06:15:00.558Z,874.00
2018-12-01T06:16:01.044Z,879.00
2018-12-01T06:17:01.653Z,879.00
2018-12-01T06:18:02.254Z,878.00
2018-12-01T06:19:02.997Z,876.00
2018-12-01T06:20:03.595Z,876.00
2018-12-01T06:21:04.149Z,874.00
2018-12-01T06:22:04.614Z,876.00
2018-12-01T06:23:05.085Z,876.00
2018-12-01T06:24:05.762Z,874.00
2018-12-01T06:25:06.463Z,876.00
2018-12-01T06:26:07.124Z,874.00
2018-12-01T06:27:07.704Z,874.00
2018-12-01T06:28:08.489Z,880.00
2018-12-01T06:29:09.106Z,878.00
2018-12-01T06:30:09.942Z,876.00
2018-12-01T06:31:10.471Z,876.00
2018-12-01T06:32:10.811Z,878.00
2018-12-01T06:33:11.419Z,879.00
2018-12-01T06:34:11.965Z,879.00
2018-12-01T06:35:12.407Z,878.00
2018-12-01T06:36:13.130Z,877.00
2018-12-01T06:37:13.592Z,877.00
2018-12-01T06:38:14.196Z,876.00
2018-12-01T06:39:14.706Z,876.00
2018-12-01T06:40:15.401Z,878.00
2018-12-01T06:41:16.024Z,878.00
2018-12-01T06:41:24.474Z,878.00
2018-12-01T06:42:25.949Z,878.00
2018-12-01T06:43:26.476Z,879.00
2018-12-01T06:44:26.978Z,879.00
2018-12-01T06:45:27.540Z,879.00
2018-12-01T06:46:28.119Z,879.00
2018-12-01T06:47:28.570Z,878.00
2018-12-01T06:48:29.017Z,876.00
2018-12-01T06:49:29.786Z,879.00
2018-12-01T06:50:30.270Z,877.00
2018-12-01T06:51:30.704Z,878.00
2018-12-01T06:52:31.280Z,876.00
2018-12-01T06:53:31.706Z,877.00
2018-12-01T06:54:32.298Z,876.00
2018-12-01T06:55:33.034Z,876.00
2018-12-01T06:56:33.424Z,876.00
2018-12-01T06:57:34.108Z,878.00
2018-12-01T06:58:34.454Z,878.00
2018-12-01T06:59:34.917Z,877.00
2018-12-01T07:00:35.474Z,878.00
2018-12-01T07:01:35.787Z,876.00
2018-12-01T07:02:36.293Z,874.00
2018-12-01T07:03:36.906Z,874.00
2018-12-01T07:04:37.246Z,874.00
2018-12-01T07:05:37.606Z,874.00
2018-12-01T07:06:38.022Z,876.00
2018-12-01T07:07:38.502Z,876.00
2018-12-01T07:08:38.850Z,876.00
2018-12-01T07:09:39.267Z,876.00
2018-12-01T07:10:39.868Z,876.00
2018-12-01T07:11:40.225Z,879.00
2018-12-01T07:12:40.711Z,877.00
2018-12-01T07:13:41.152Z,876.00
2018-12-01T07:14:41.652Z,876.00
2018-12-01T07:15:42.182Z,874.00
2018-12-01T07:16:42.551Z,874.00
2018-12-01T07:17:43.035Z,874.00
2018-12-01T07:18:43.584Z,878.00
2018-12-01T07:19:44.085Z,879.00
2018-12-01T07:20:44.795Z,879.00
2018-12-01T07:21:45.115Z,878.00
2018-12-01T07:22:45.620Z,876.00
2018-12-01T07:23:46.035Z,879.00
2018-12-01T07:24:46.482Z,879.00
2018-12-01T07:25:46.847Z,879.00
2018-12-01T07:26:47.240Z,878.00
2018-12-01T07:26:55.626Z,869.00
2018-12-01T07:27:56.981Z,879.00
2018-12-01T07:28:57.372Z,878.00
2018-12-01T07:29:58.175Z,878.00
2018-12-01T07:30:57.207Z,879.00
2018-12-01T07:31:58.625Z,876.00
2018-12-01T07:32:59.201Z,876.00
2018-12-01T07:33:59.590Z,874.00
2018-12-01T07:34:59.979Z,874.00
2018-12-01T07:36:00.400Z,874.00
2018-12-01T07:37:01.085Z,876.00
2018-12-01T07:38:01.546Z,877.00
2018-12-01T07:39:01.889Z,876.00
2018-12-01T07:40:02.265Z,876.00
2018-12-01T07:41:03.166Z,874.00
2018-12-01T07:42:03.633Z,873.00
2018-12-01T07:43:04.058Z,873.00
2018-12-01T07:44:04.772Z,871.00
2018-12-01T07:45:05.203Z,871.00
2018-12-01T07:46:06.028Z,870.00
2018-12-01T07:47:06.405Z,870.00
2018-12-01T07:48:06.900Z,870.00
2018-12-01T07:49:07.353Z,871.00
2018-12-01T07:50:07.867Z,873.00
2018-12-01T07:51:08.203Z,874.00
2018-12-01T07:52:08.515Z,873.00
2018-12-01T07:53:09.661Z,876.00
2018-12-01T07:54:08.317Z,874.00
2018-12-01T07:55:09.833Z,873.00
2018-12-01T07:56:10.232Z,874.00
2018-12-01T07:57:10.807Z,873.00
2018-12-01T07:58:11.424Z,874.00
2018-12-01T07:59:11.905Z,872.00
2018-12-01T08:00:12.234Z,870.00
2018-12-01T08:01:12.609Z,870.00
2018-12-01T08:02:12.962Z,870.00
2018-12-01T08:03:13.591Z,870.00
2018-12-01T08:04:14.033Z,873.00
2018-12-01T08:05:14.521Z,871.00
2018-12-01T08:06:15.109Z,874.00
2018-12-01T08:07:15.442Z,876.00
2018-12-01T08:08:15.830Z,873.00
2018-12-01T08:09:16.738Z,870.00
2018-12-01T08:10:17.246Z,871.00
2018-12-01T08:11:17.602Z,874.00
2018-12-01T08:12:17.993Z,874.00
2018-12-01T08:12:26.775Z,874.00
2018-12-01T08:13:27.390Z,871.00
2018-12-01T08:14:28.333Z,870.00
2018-12-01T08:15:29.037Z,869.00
2018-12-01T08:16:29.492Z,868.00
2018-12-01T08:17:29.952Z,868.00
2018-12-01T08:18:30.429Z,868.00
2018-12-01T08:19:30.793Z,868.00
2018-12-01T08:20:31.061Z,868.00
2018-12-01T08:21:31.528Z,871.00
2018-12-01T08:22:31.887Z,873.00
2018-12-01T08:23:32.341Z,870.00
2018-12-01T08:24:32.714Z,870.00
2018-12-01T08:25:33.089Z,871.00
2018-12-01T08:26:33.589Z,874.00
2018-12-01T08:27:33.927Z,873.00
2018-12-01T08:28:34.333Z,871.00
2018-12-01T08:29:34.731Z,871.00
2018-12-01T08:30:35.133Z,871.00
2018-12-01T08:31:35.480Z,870.00
2018-12-01T08:32:35.903Z,869.00
2018-12-01T08:33:36.202Z,868.00
2018-12-01T08:34:36.533Z,869.00
2018-12-01T08:35:36.995Z,859.00
2018-12-01T08:36:37.290Z,867.00
2018-12-01T08:37:38.156Z,867.00
2018-12-01T08:38:38.646Z,867.00
2018-12-01T08:39:39.142Z,866.00
2018-12-01T08:40:39.758Z,866.00
2018-12-01T08:41:40.101Z,866.00
2018-12-01T08:42:40.728Z,868.00
2018-12-01T08:43:41.160Z,867.00
2018-12-01T08:44:41.531Z,866.00
2018-12-01T08:45:42.238Z,866.00
2018-12-01T08:46:42.504Z,865.00
2018-12-01T08:47:42.842Z,865.00
2018-12-01T08:48:43.449Z,866.00
2018-12-01T08:49:44.518Z,865.00
2018-12-01T08:50:43.187Z,866.00
2018-12-01T08:51:44.578Z,866.00
2018-12-01T08:52:44.983Z,866.00
2018-12-01T08:53:45.552Z,865.00
2018-12-01T08:54:46.183Z,865.00
2018-12-01T08:55:46.774Z,865.00
2018-12-01T08:56:47.106Z,865.00
2018-12-01T08:57:47.527Z,865.00
2018-12-01T08:57:55.878Z,865.00
2018-12-01T08:58:57.371Z,865.00
2018-12-01T08:59:57.800Z,866.00
2018-12-01T09:00:58.123Z,866.00
2018-12-01T09:01:58.479Z,865.00
2018-12-01T09:02:59.997Z,865.00
2018-12-01T09:03:59.405Z,865.00
2018-12-01T09:04:59.681Z,865.00
2018-12-01T09:06:00.088Z,865.00
2018-12-01T09:07:00.761Z,866.00
2018-12-01T09:08:01.183Z,867.00
2018-12-01T09:09:01.584Z,866.00
2018-12-01T09:10:02.108Z,866.00
2018-12-01T09:11:02.474Z,865.00
2018-12-01T09:12:02.927Z,864.00
2018-12-01T09:13:03.455Z,866.00
2018-12-01T09:14:03.878Z,865.00
2018-12-01T09:15:03.871Z,865.00
2018-12-01T09:16:04.863Z,864.00
2018-12-01T09:17:05.245Z,865.00
2018-12-01T09:18:05.636Z,865.00
2018-12-01T09:19:06.012Z,864.00
2018-12-01T09:20:06.899Z,862.00
2018-12-01T09:21:07.265Z,864.00
2018-12-01T09:22:07.690Z,864.00
2018-12-01T09:23:08.184Z,862.00
2018-12-01T09:24:09.060Z,865.00
2018-12-01T09:25:09.442Z,866.00
2018-12-01T09:26:09.786Z,866.00
2018-12-01T09:27:10.250Z,866.00
2018-12-01T09:28:10.540Z,865.00
2018-12-01T09:29:11.014Z,865.00
2018-12-01T09:30:11.385Z,866.00
2018-12-01T09:31:11.768Z,865.00
2018-12-01T09:32:12.120Z,865.00
2018-12-01T09:33:12.513Z,865.00
2018-12-01T09:34:12.879Z,865.00
2018-12-01T09:35:13.262Z,864.00
2018-12-01T09:36:13.881Z,866.00
2018-12-01T09:37:14.591Z,866.00
2018-12-01T09:38:15.243Z,866.00
2018-12-01T09:39:15.580Z,865.00
2018-12-01T09:40:15.931Z,865.00
2018-12-01T09:41:16.514Z,865.00
2018-12-01T09:42:16.889Z,866.00
2018-12-01T09:43:17.375Z,866.00
2018-12-01T09:43:26.001Z,865.00
2018-12-01T09:44:26.456Z,867.00
2018-12-01T09:45:26.901Z,865.00
2018-12-01T09:46:27.341Z,866.00
2018-12-01T09:47:27.832Z,865.00
2018-12-01T09:48:27.231Z,866.00
2018-12-01T09:49:29.348Z,865.00
2018-12-01T09:50:28.152Z,867.00
2018-12-01T09:51:29.504Z,866.00
2018-12-01T09:52:29.928Z,866.00
2018-12-01T09:53:30.316Z,867.00
2018-12-01T09:54:30.837Z,866.00
2018-12-01T09:55:31.193Z,865.00
2018-12-01T09:56:31.594Z,865.00
2018-12-01T09:57:32.020Z,865.00
2018-12-01T09:58:32.465Z,865.00
2018-12-01T09:59:32.865Z,865.00
2018-12-01T10:00:33.283Z,865.00
2018-12-01T10:01:33.837Z,865.00
2018-12-01T10:02:34.645Z,866.00
2018-12-01T10:03:35.288Z,865.00
2018-12-01T10:04:35.694Z,865.00
2018-12-01T10:05:36.482Z,864.00
2018-12-01T10:06:37.023Z,861.00
2018-12-01T10:07:37.575Z,861.00
2018-12-01T10:08:38.039Z,865.00
2018-12-01T10:09:38.384Z,865.00
2018-12-01T10:10:38.797Z,866.00
2018-12-01T10:11:39.113Z,865.00
2018-12-01T10:12:39.978Z,865.00
2018-12-01T10:13:40.385Z,866.00
2018-12-01T10:14:40.845Z,865.00
2018-12-01T10:15:41.206Z,865.00
2018-12-01T10:16:41.768Z,865.00
2018-12-01T10:17:42.270Z,865.00
2018-12-01T10:18:42.860Z,866.00
2018-12-01T10:19:43.752Z,865.00
2018-12-01T10:20:44.412Z,864.00
2018-12-01T10:21:44.876Z,865.00
2018-12-01T10:22:45.350Z,865.00
2018-12-01T10:23:45.435Z,867.00
2018-12-01T10:24:45.924Z,866.00
2018-12-01T10:25:46.356Z,865.00
2018-12-01T10:26:46.706Z,865.00
2018-12-01T10:27:47.190Z,865.00
2018-12-01T10:28:47.567Z,865.00
2018-12-01T10:29:48.017Z,866.00
2018-12-01T10:29:56.445Z,865.00
2018-12-01T10:30:57.722Z,865.00
2018-12-01T10:31:58.174Z,865.00
2018-12-01T10:32:58.533Z,865.00
2018-12-01T10:33:58.988Z,861.00
2018-12-01T10:34:59.300Z,861.00
2018-12-01T10:35:59.723Z,745.00
2018-12-01T10:37:00.149Z,860.00
2018-12-01T10:38:00.742Z,861.00
2018-12-01T10:39:03.710Z,861.00
2018-12-01T10:40:00.393Z,861.00
2018-12-01T10:41:02.124Z,860.00
2018-12-01T10:42:03.703Z,860.00
2018-12-01T10:43:01.957Z,865.00
2018-12-01T10:44:03.703Z,865.00
2018-12-01T10:45:03.699Z,861.00
2018-12-01T10:46:04.077Z,861.00
2018-12-01T10:47:04.525Z,860.00
2018-12-01T10:48:05.210Z,860.00
2018-12-01T10:49:05.884Z,860.00
2018-12-01T10:50:06.283Z,860.00
2018-12-01T10:51:06.713Z,860.00
2018-12-01T10:52:07.144Z,859.00
2018-12-01T10:53:07.537Z,859.00
2018-12-01T10:54:07.951Z,859.00
2018-12-01T10:55:08.433Z,859.00
2018-12-01T10:56:08.885Z,859.00
2018-12-01T10:57:09.289Z,861.00
2018-12-01T10:58:09.652Z,865.00
2018-12-01T10:59:10.079Z,864.00
2018-12-01T11:00:10.540Z,864.00
2018-12-01T11:01:10.976Z,861.00
2018-12-01T11:02:11.576Z,860.00
2018-12-01T11:03:12.073Z,860.00
2018-12-01T11:04:12.883Z,861.00
2018-12-01T11:05:13.516Z,861.00
2018-12-01T11:06:14.113Z,860.00
2018-12-01T11:07:14.477Z,860.00
2018-12-01T11:08:14.766Z,860.00
2018-12-01T11:09:15.039Z,859.00
2018-12-01T11:10:16.486Z,859.00
2018-12-01T11:11:14.795Z,859.00
2018-12-01T11:12:16.169Z,860.00
2018-12-01T11:13:16.525Z,860.00
2018-12-01T11:14:16.959Z,859.00
2018-12-01T11:15:17.695Z,859.00
2018-12-01T11:16:18.017Z,859.00
2018-12-01T11:17:18.584Z,860.00
2018-12-01T11:17:26.995Z,860.00
2018-12-01T11:18:27.401Z,860.00
2018-12-01T11:19:28.711Z,859.00
2018-12-01T11:20:29.111Z,860.00
2018-12-01T11:21:29.410Z,860.00
2018-12-01T11:22:29.897Z,859.00
2018-12-01T11:23:30.281Z,860.00
2018-12-01T11:24:30.576Z,860.00
2018-12-01T11:25:30.997Z,860.00
2018-12-01T11:26:31.426Z,861.00
2018-12-01T11:27:31.749Z,861.00
2018-12-01T11:28:32.158Z,861.00
2018-12-01T11:29:33.945Z,861.00
2018-12-01T11:30:33.369Z,865.00
2018-12-01T11:31:33.874Z,866.00
2018-12-01T11:32:34.315Z,865.00
2018-12-01T11:33:34.801Z,862.00
2018-12-01T11:34:35.016Z,861.00
2018-12-01T11:35:35.376Z,860.00
2018-12-01T11:36:35.648Z,861.00
2018-12-01T11:37:36.104Z,861.00
2018-12-01T11:38:36.414Z,860.00
2018-12-01T11:39:36.718Z,860.00
2018-12-01T11:40:37.383Z,860.00
2018-12-01T11:41:37.774Z,860.00
2018-12-01T11:42:36.798Z,859.00
2018-12-01T11:43:38.136Z,859.00
2018-12-01T11:44:38.929Z,859.00
2018-12-01T11:45:39.232Z,860.00
2018-12-01T11:46:39.724Z,861.00
2018-12-01T11:47:40.397Z,861.00
2018-12-01T11:48:40.792Z,861.00
2018-12-01T11:49:41.192Z,866.00
2018-12-01T11:50:41.860Z,866.00
2018-12-01T11:51:42.325Z,866.00
2018-12-01T11:52:42.742Z,867.00
2018-12-01T11:53:43.157Z,866.00
2018-12-01T11:54:43.581Z,866.00
2018-12-01T11:55:44.219Z,866.00
2018-12-01T11:56:44.501Z,865.00
2018-12-01T11:57:44.851Z,865.00
2018-12-01T11:58:46.240Z,861.00
2018-12-01T11:59:45.570Z,865.00
2018-12-01T12:00:46.114Z,865.00
2018-12-01T12:01:46.678Z,865.00
2018-12-01T12:02:47.070Z,865.00
2018-12-01T12:03:47.354Z,865.00
2018-12-01T12:03:57.281Z,865.00
2018-12-01T12:04:58.687Z,865.00
2018-12-01T12:05:59.110Z,865.00
2018-12-01T12:06:59.495Z,866.00
2018-12-01T12:07:59.953Z,868.00
2018-12-01T12:09:00.437Z,867.00
2018-12-01T12:10:00.794Z,866.00
2018-12-01T12:11:02.259Z,866.00
2018-12-01T12:12:01.675Z,866.00
2018-12-01T12:13:02.229Z,867.00
2018-12-01T12:14:02.721Z,867.00
2018-12-01T12:15:03.136Z,868.00
2018-12-01T12:16:03.629Z,866.00
2018-12-01T12:17:03.939Z,866.00
2018-12-01T12:18:04.473Z,865.00
2018-12-01T12:19:04.860Z,867.00
2018-12-01T12:20:05.216Z,866.00
2018-12-01T12:21:05.500Z,866.00